Omaha, Nebraska
Current Conditions -  °F | °C
As of 11:52 PM on Sunday 23 Nov 2014 (Local Time) from KOMA Reporting Station
Overcast Overcast  
Wind Chill: 22°   Ceiling: 3000
Heat Index: 35°   Visibility: 10mi
Dew Point: 23°   Wind: 28mph
Humidity: 61%   Direction: 340°NNW
Pressure: 29.54"   Gusts: 37mph
Location:  41.26°N, 95.94°W
Report Text: KOMA 240552Z 34024G32KT 10SM OVC030 02/M05 A2954 RMK AO2 PK WND 30032/0501 SLP005 T00171050 10067 20011 401280011 50004
Loading
Personal Weather Stations






























Interactive Weather Map New forecast layout! Learn more

10-Day Weather Forecast

Advertisements
Track Severe Weather on mobile